createdAt,value
2023-01-30T00:03:35.371Z,100764.56
2023-01-30T00:09:05.661Z,100761.47
2023-01-30T00:14:34.785Z,100768.22
2023-01-30T00:20:04.256Z,100757.56
2023-01-30T00:25:34.634Z,100753.66
2023-01-30T00:31:03.895Z,100746.22
2023-01-30T00:36:33.255Z,100755.22
2023-01-30T00:42:20.995Z,100747.38
2023-01-30T00:47:50.531Z,100754.53
2023-01-30T00:53:19.117Z,100746.03
2023-01-30T00:58:49.297Z,100742.28
2023-01-30T01:04:18.032Z,100747.72
2023-01-30T05:13:05.093Z,100754.41
2023-01-30T05:18:35.146Z,100761.13
2023-01-30T05:24:03.391Z,100757.53
2023-01-30T05:29:33.877Z,100770.84
2023-01-30T05:34:56.888Z,100780.03
2023-01-30T05:40:25.768Z,100769.88
2023-01-30T05:45:55.436Z,100769.03
2023-01-30T05:51:25.345Z,100751.09
2023-01-30T05:56:54.841Z,100755.53
2023-01-30T06:02:20.699Z,100756.31
2023-01-30T06:07:43.721Z,100757.16
2023-01-30T06:13:12.298Z,100755.31
2023-01-30T06:18:37.327Z,100744.41
2023-01-30T06:24:05.241Z,100745.09
2023-01-30T06:29:28.357Z,100734.63
2023-01-30T06:34:59.244Z,100747.69
2023-01-30T06:40:22.956Z,100731.09
2023-01-30T06:45:51.309Z,100742.31
2023-01-30T06:51:21.954Z,100739.34
2023-01-30T06:56:50.475Z,100729.19
2023-01-30T07:02:15.241Z,100721.72
2023-01-30T07:07:45.922Z,100707.19
2023-01-30T07:13:15.029Z,100708.97
2023-01-30T07:18:43.375Z,100708.16
2023-01-30T07:24:14.148Z,100705.34
2023-01-30T07:29:42.839Z,100698.94
2023-01-30T07:35:11.802Z,100692.66
2023-01-30T07:40:42.084Z,100706.06
2023-01-30T07:46:10.495Z,100703.03
2023-01-30T07:51:40.169Z,100700.88
2023-01-30T07:57:10.810Z,100705.69
2023-01-30T08:02:39.974Z,100700.91
2023-01-30T08:08:08.654Z,100690.94
2023-01-30T08:13:39.172Z,100688.88
2023-01-30T08:19:08.556Z,100685.53
2023-01-30T08:24:37.115Z,100682.63
2023-01-30T08:30:08.484Z,100671.41
2023-01-30T08:35:37.490Z,100660.94
2023-01-30T08:41:08.308Z,100664.19
2023-01-30T08:46:39.284Z,100648.69
2023-01-30T08:52:09.013Z,100640.19
2023-01-30T08:57:37.772Z,100634.63
2023-01-30T09:03:07.756Z,100628.72
2023-01-30T09:08:36.929Z,100621.44
2023-01-30T09:14:05.396Z,100617.16
2023-01-30T09:19:37.292Z,100604.81
2023-01-30T09:25:08.221Z,100601.19
2023-01-30T09:30:37.869Z,100590.75
2023-01-30T09:36:09.106Z,100571.94
2023-01-30T09:41:53.296Z,100564.97
2023-01-30T09:47:31.697Z,100554.00
2023-01-30T09:53:13.938Z,100549.41
2023-01-30T09:58:48.880Z,100544.41
2023-01-30T10:04:27.418Z,100526.25
2023-01-30T14:20:07.794Z,100321.19
2023-01-30T14:25:36.131Z,100303.78
2023-01-30T14:31:01.607Z,100305.66
2023-01-30T14:36:38.488Z,100296.06
2023-01-30T14:42:20.037Z,100300.38
2023-01-30T14:47:50.984Z,100289.94
2023-01-30T14:53:22.978Z,100300.50
2023-01-30T14:58:52.999Z,100300.22
2023-01-30T15:04:21.191Z,100298.28
2023-01-30T15:09:54.272Z,100298.91
2023-01-30T15:15:26.213Z,100301.13
2023-01-30T15:21:12.856Z,100303.84
2023-01-30T15:26:53.309Z,100305.22
2023-01-30T15:32:23.241Z,100309.50
2023-01-30T15:37:51.080Z,100300.28
2023-01-30T15:43:42.525Z,100309.72
2023-01-30T15:49:41.229Z,100305.16
2023-01-30T15:55:18.002Z,100311.13
2023-01-30T16:00:51.185Z,100306.81
2023-01-30T16:06:29.422Z,100309.56
2023-01-30T16:11:58.437Z,100296.00
2023-01-30T16:17:32.357Z,100302.72
2023-01-30T16:23:01.279Z,100308.63
2023-01-30T16:28:32.229Z,100311.44
2023-01-30T16:34:02.798Z,100304.50
2023-01-30T16:39:33.080Z,100316.56
2023-01-30T16:45:43.201Z,100311.91
2023-01-30T16:51:26.878Z,100301.47
2023-01-30T16:56:59.088Z,100299.19
2023-01-30T17:02:35.193Z,100304.00
2023-01-30T17:08:05.964Z,100298.44
2023-01-30T17:13:37.689Z,100291.09
2023-01-30T17:19:03.247Z,100289.78
2023-01-30T17:24:33.989Z,100290.53
2023-01-30T17:30:04.021Z,100279.44
2023-01-30T17:35:33.332Z,100278.19
2023-01-30T17:41:04.129Z,100278.31
2023-01-30T17:46:36.858Z,100274.25
2023-01-30T17:52:05.242Z,100274.19
2023-01-30T17:57:35.527Z,100264.22
2023-01-30T18:03:04.252Z,100266.69
2023-01-30T18:08:33.384Z,100257.34
2023-01-30T18:14:05.782Z,100246.09
2023-01-30T18:19:35.510Z,100242.31
2023-01-30T18:25:04.639Z,100240.63
2023-01-30T18:30:34.650Z,100245.19
2023-01-30T18:36:06.110Z,100238.75
2023-01-30T18:41:35.740Z,100234.63
2023-01-30T18:47:05.845Z,100221.22
2023-01-30T18:52:34.493Z,100222.59
2023-01-30T18:58:03.518Z,100221.97
2023-01-30T19:03:33.991Z,100210.09
2023-01-30T22:59:43.485Z,100153.03
2023-01-30T23:05:10.024Z,100154.44
2023-01-30T23:10:34.622Z,100163.34
2023-01-30T23:16:02.479Z,100160.13
2023-01-30T23:21:28.565Z,100144.03
2023-01-30T23:26:53.242Z,100142.06
2023-01-30T23:32:23.624Z,100140.50
2023-01-30T23:38:08.940Z,100144.84
2023-01-30T23:43:34.137Z,100139.50
2023-01-30T23:49:06.869Z,100146.72
2023-01-30T23:54:31.418Z,100130.47
2023-01-30T23:59:53.587Z,100135.47
